createdAt,value
2022-09-24T00:01:47.155Z,71.30
2022-09-24T00:04:14.689Z,71.28
2022-09-24T00:06:46.131Z,71.29
2022-09-24T00:09:18.626Z,71.28
2022-09-24T00:11:46.112Z,71.26
2022-09-24T00:14:13.428Z,71.30
2022-09-24T00:16:43.248Z,71.49
2022-09-24T00:19:13.216Z,71.61
2022-09-24T00:21:41.967Z,71.76
2022-09-24T00:24:18.291Z,71.90
2022-09-24T00:26:51.878Z,72.03
2022-09-24T00:29:23.455Z,72.18
2022-09-24T00:31:52.713Z,72.37
2022-09-24T00:34:21.253Z,72.50
2022-09-24T00:36:48.653Z,72.60
2022-09-24T00:39:17.306Z,72.67
2022-09-24T00:41:47.338Z,72.76
2022-09-24T00:44:56.589Z,72.90
2022-09-24T00:47:39.500Z,72.84
2022-09-24T00:50:28.922Z,72.94
2022-09-24T00:53:04.431Z,73.01
2022-09-24T00:55:46.893Z,72.99
2022-09-24T00:58:18.286Z,72.88
2022-09-24T01:00:49.996Z,72.83
2022-09-24T01:03:23.912Z,72.74
2022-09-24T01:05:51.640Z,72.72
2022-09-24T01:08:20.670Z,72.72
2022-09-24T01:10:59.818Z,72.72
2022-09-24T01:13:55.794Z,72.69
2022-09-24T01:16:46.778Z,72.72
2022-09-24T01:20:08.382Z,72.78
2022-09-24T01:22:59.766Z,72.77
2022-09-24T01:26:01.630Z,72.85
2022-09-24T01:29:21.277Z,72.85
2022-09-24T01:32:05.670Z,72.93
2022-09-24T01:34:40.798Z,72.98
2022-09-24T01:37:08.903Z,73.06
2022-09-24T01:39:37.966Z,73.25
2022-09-24T01:42:07.539Z,73.34
2022-09-24T01:44:36.951Z,73.48
2022-09-24T01:47:07.885Z,73.63
2022-09-24T01:49:35.466Z,73.60
2022-09-24T01:52:07.236Z,73.64
2022-09-24T01:54:39.120Z,73.80
2022-09-24T01:57:20.929Z,73.78
2022-09-24T02:00:07.238Z,73.95
2022-09-24T02:02:51.113Z,74.12
2022-09-24T02:05:35.251Z,74.25
2022-09-24T02:08:25.174Z,74.23
2022-09-24T02:11:06.568Z,74.27
2022-09-24T02:13:56.912Z,74.19
2022-09-24T02:16:46.965Z,74.05
2022-09-24T02:19:22.727Z,73.82
2022-09-24T02:21:52.036Z,73.52
2022-09-24T02:24:24.643Z,73.39
2022-09-24T02:26:52.440Z,73.18
2022-09-24T02:29:25.198Z,72.96
2022-09-24T02:32:02.875Z,72.97
2022-09-24T02:34:40.668Z,72.96
2022-09-24T02:37:23.121Z,72.81
2022-09-24T02:39:58.031Z,72.69
2022-09-24T02:42:27.633Z,72.65
2022-09-24T02:45:03.408Z,72.52
2022-09-24T02:47:31.569Z,72.45
2022-09-24T02:49:59.866Z,72.30
2022-09-24T02:52:27.583Z,72.36
2022-09-24T02:54:55.081Z,72.32
2022-09-24T02:57:22.530Z,72.30
2022-09-24T02:59:49.841Z,72.35
2022-09-24T03:02:17.426Z,72.22
2022-09-24T03:04:46.612Z,72.26
2022-09-24T03:07:14.536Z,72.30
2022-09-24T03:09:42.041Z,72.35
2022-09-24T03:12:10.357Z,72.26
2022-09-24T03:14:37.913Z,72.30
2022-09-24T03:17:05.495Z,72.37
2022-09-24T03:19:32.857Z,72.41
2022-09-24T03:22:00.154Z,72.45
2022-09-24T03:24:27.635Z,72.59
2022-09-24T03:26:54.986Z,72.62
2022-09-24T03:29:24.120Z,72.65
2022-09-24T03:31:51.862Z,72.79
2022-09-24T03:34:19.522Z,72.96
2022-09-24T03:36:46.896Z,73.28
2022-09-24T03:39:14.347Z,73.51
2022-09-24T03:41:41.797Z,73.62
2022-09-24T03:44:09.426Z,73.75
2022-09-24T03:46:36.816Z,73.76
2022-09-24T03:49:04.328Z,73.80
2022-09-24T03:51:31.628Z,73.80
2022-09-24T03:53:59.220Z,73.68
2022-09-24T03:56:27.109Z,73.59
2022-09-24T03:58:54.778Z,73.43
2022-09-24T04:01:22.905Z,73.42
2022-09-24T04:03:50.856Z,73.30
2022-09-24T04:06:22.214Z,73.28
2022-09-24T04:08:47.900Z,73.31
2022-09-24T04:11:15.291Z,73.40
2022-09-24T04:13:42.827Z,73.45
2022-09-24T04:16:10.553Z,73.50
2022-09-24T04:18:39.551Z,73.57
2022-09-24T04:21:08.466Z,73.58
2022-09-24T04:23:36.214Z,73.68
2022-09-24T04:26:03.952Z,73.72
2022-09-24T04:28:31.682Z,73.81
2022-09-24T04:30:59.435Z,73.89
2022-09-24T04:33:27.138Z,73.97
2022-09-24T04:35:54.766Z,74.09
2022-09-24T04:38:22.384Z,74.18
2022-09-24T04:40:50.178Z,74.28
2022-09-24T04:43:18.520Z,74.36
2022-09-24T04:45:46.833Z,74.38
2022-09-24T04:48:14.755Z,74.48
2022-09-24T04:50:46.043Z,74.56
2022-09-24T04:53:11.719Z,74.75
2022-09-24T04:55:39.221Z,74.86
2022-09-24T04:58:07.207Z,75.01
2022-09-24T05:00:34.836Z,75.09
2022-09-24T05:03:03.135Z,75.12
2022-09-24T05:05:32.540Z,75.20
2022-09-24T05:08:00.926Z,75.19
2022-09-24T05:10:34.123Z,75.15
2022-09-24T05:13:01.709Z,74.95
2022-09-24T05:15:29.746Z,74.84
2022-09-24T05:17:58.025Z,74.74
2022-09-24T05:20:25.901Z,74.59
2022-09-24T05:22:53.367Z,74.56
2022-09-24T05:25:22.845Z,74.58
2022-09-24T05:27:55.331Z,74.48
2022-09-24T05:30:24.837Z,74.58
2022-09-24T05:32:52.679Z,74.62
2022-09-24T05:35:22.765Z,74.73
2022-09-24T05:37:52.728Z,74.85
2022-09-24T05:40:38.887Z,74.89
2022-09-24T05:43:06.259Z,74.93
2022-09-24T05:45:33.655Z,75.01
2022-09-24T05:48:01.597Z,74.85
2022-09-24T05:50:29.119Z,74.81
2022-09-24T05:52:56.646Z,74.67
2022-09-24T05:55:26.679Z,74.68
2022-09-24T05:57:53.741Z,74.84
2022-09-24T06:00:21.332Z,74.95
2022-09-24T06:02:50.180Z,75.09
2022-09-24T06:05:17.739Z,75.36
2022-09-24T06:07:45.279Z,75.55
2022-09-24T06:10:12.965Z,75.66
2022-09-24T06:12:41.217Z,75.63
2022-09-24T06:15:09.636Z,75.60
2022-09-24T06:17:37.891Z,75.59
2022-09-24T06:20:06.067Z,75.23
2022-09-24T06:22:33.784Z,75.15
2022-09-24T06:25:01.594Z,74.56
2022-09-24T06:27:29.187Z,74.47
2022-09-24T06:29:57.043Z,74.06
2022-09-24T06:32:25.182Z,73.75
2022-09-24T06:34:58.311Z,73.44
2022-09-24T06:37:22.036Z,73.05
2022-09-24T06:39:50.044Z,72.42
2022-09-24T06:42:17.726Z,72.85
2022-09-24T06:44:45.219Z,72.43
2022-09-24T06:47:12.749Z,71.35
2022-09-24T06:49:40.935Z,71.25
2022-09-24T06:52:08.653Z,71.93
2022-09-24T06:54:36.153Z,72.22
2022-09-24T06:57:06.830Z,72.23
2022-09-24T06:59:34.478Z,72.34
2022-09-24T07:02:01.904Z,72.09
2022-09-24T07:04:29.677Z,71.46
2022-09-24T07:07:15.827Z,71.32
2022-09-24T07:09:43.451Z,71.55
2022-09-24T07:12:11.188Z,70.08
2022-09-24T07:14:38.481Z,70.16
2022-09-24T07:17:05.612Z,70.63
2022-09-24T07:19:32.992Z,70.73
2022-09-24T07:22:00.459Z,70.20
2022-09-24T07:24:27.862Z,69.85
2022-09-24T07:26:56.012Z,69.63
2022-09-24T07:29:23.759Z,68.83
2022-09-24T07:31:51.308Z,65.26
2022-09-24T07:34:18.922Z,66.51
2022-09-24T07:36:46.308Z,67.27
2022-09-24T07:39:13.836Z,67.79
2022-09-24T07:41:43.669Z,67.95
2022-09-24T07:44:11.434Z,67.20
2022-09-24T07:46:38.902Z,66.41
2022-09-24T07:49:06.670Z,66.39
2022-09-24T07:51:34.982Z,66.60
2022-09-24T07:54:02.584Z,65.98
2022-09-24T07:56:31.747Z,64.63
2022-09-24T07:58:59.287Z,65.80
2022-09-24T08:01:26.806Z,62.81
2022-09-24T08:03:54.762Z,62.16
2022-09-24T08:06:22.750Z,63.08
2022-09-24T08:08:52.670Z,61.60
2022-09-24T08:11:20.885Z,61.32
2022-09-24T08:13:48.690Z,60.52
2022-09-24T08:16:17.294Z,61.15
2022-09-24T08:18:44.790Z,61.43
2022-09-24T08:21:12.634Z,62.14
2022-09-24T08:23:40.737Z,61.78
2022-09-24T08:26:10.748Z,62.16
2022-09-24T08:28:41.480Z,62.52
2022-09-24T08:31:12.780Z,62.97
2022-09-24T08:33:40.883Z,63.18
2022-09-24T08:36:09.853Z,62.11
2022-09-24T08:38:38.527Z,61.13
2022-09-24T08:41:39.373Z,62.46
2022-09-24T08:44:47.410Z,62.10
2022-09-24T08:47:35.465Z,61.69
2022-09-24T08:50:20.263Z,61.29
2022-09-24T08:53:06.944Z,60.43
2022-09-24T08:55:52.883Z,60.34
2022-09-24T08:58:47.325Z,59.74
2022-09-24T09:01:28.989Z,58.42
2022-09-24T09:04:08.187Z,57.26
2022-09-24T09:07:01.017Z,58.38
2022-09-24T09:09:39.945Z,57.30
2022-09-24T09:12:24.750Z,58.18
2022-09-24T09:15:11.843Z,57.65
2022-09-24T09:17:59.576Z,58.61
2022-09-24T09:20:46.098Z,59.23
2022-09-24T09:23:25.035Z,58.27
2022-09-24T09:25:56.734Z,57.13
2022-09-24T09:28:27.199Z,57.80
2022-09-24T09:31:27.273Z,58.30
2022-09-24T09:34:33.908Z,59.10
2022-09-24T09:37:36.529Z,59.27
2022-09-24T09:40:35.703Z,59.33
2022-09-24T09:43:10.457Z,59.38
2022-09-24T09:46:08.124Z,59.40
2022-09-24T09:48:46.930Z,60.01
2022-09-24T09:51:25.427Z,60.34
2022-09-24T09:54:00.189Z,59.68
2022-09-24T09:56:33.735Z,60.42
2022-09-24T09:59:10.641Z,60.11
2022-09-24T10:01:41.948Z,60.52
2022-09-24T10:04:36.937Z,60.89
2022-09-24T10:07:16.532Z,61.05
2022-09-24T10:09:46.464Z,61.53
2022-09-24T10:12:23.631Z,60.91
2022-09-24T10:15:03.597Z,60.66
2022-09-24T10:17:37.859Z,60.98
2022-09-24T10:20:26.453Z,60.82
2022-09-24T10:23:04.733Z,60.50
2022-09-24T10:25:36.583Z,59.62
2022-09-24T10:28:27.707Z,60.46
2022-09-24T10:31:00.602Z,60.30
2022-09-24T10:33:37.949Z,60.05
2022-09-24T10:36:09.389Z,60.02
2022-09-24T10:38:37.186Z,59.85
2022-09-24T10:41:26.555Z,60.09
2022-09-24T10:43:56.735Z,60.15
2022-09-24T10:46:37.988Z,60.23
2022-09-24T10:49:40.101Z,60.22
2022-09-24T10:52:48.322Z,59.96
2022-09-24T10:55:27.478Z,59.97
2022-09-24T10:58:26.252Z,59.19
2022-09-24T11:01:32.862Z,57.83
2022-09-24T11:04:30.535Z,58.82
2022-09-24T11:07:32.803Z,58.54
2022-09-24T11:10:40.663Z,58.15
2022-09-24T11:13:27.540Z,58.04
2022-09-24T11:16:33.175Z,58.08
2022-09-24T11:19:29.675Z,56.73
2022-09-24T11:22:22.014Z,56.43
2022-09-24T11:25:16.841Z,55.97
2022-09-24T11:28:33.102Z,56.40
2022-09-24T11:31:20.974Z,55.64
2022-09-24T11:34:23.315Z,55.54
2022-09-24T11:37:19.540Z,55.81
2022-09-24T11:40:04.042Z,54.68
2022-09-24T11:42:43.186Z,54.26
2022-09-24T11:45:33.487Z,52.75
2022-09-24T11:48:26.466Z,53.85
2022-09-24T11:51:18.590Z,53.74
2022-09-24T11:53:51.806Z,54.43
2022-09-24T11:56:33.377Z,54.23
2022-09-24T11:59:15.263Z,53.80
2022-09-24T12:01:48.417Z,53.55
2022-09-24T12:04:19.510Z,54.25
2022-09-24T12:07:03.497Z,51.63
2022-09-24T12:09:39.131Z,51.70
2022-09-24T12:12:33.851Z,50.80
2022-09-24T12:15:17.610Z,51.76
2022-09-24T12:18:02.641Z,52.86
2022-09-24T12:20:34.167Z,52.66
2022-09-24T12:23:12.328Z,53.22
2022-09-24T12:25:46.059Z,53.03
2022-09-24T12:28:38.595Z,50.27
2022-09-24T12:31:30.185Z,50.78
2022-09-24T12:34:18.098Z,51.47
2022-09-24T12:37:02.666Z,53.16
2022-09-24T12:39:38.474Z,53.51
2022-09-24T12:42:11.813Z,53.50
2022-09-24T12:44:47.149Z,53.63
2022-09-24T12:47:21.848Z,53.80
2022-09-24T12:49:56.725Z,53.15
2022-09-24T12:52:29.972Z,53.46
2022-09-24T12:55:01.788Z,53.58
2022-09-24T12:57:42.311Z,54.05
2022-09-24T13:00:45.053Z,54.24
2022-09-24T13:03:39.891Z,54.59
2022-09-24T13:06:32.783Z,54.74
2022-09-24T13:09:00.922Z,53.95
2022-09-24T13:11:36.402Z,53.50
2022-09-24T13:14:15.326Z,53.94
2022-09-24T13:16:49.107Z,53.55
2022-09-24T13:19:30.915Z,53.48
2022-09-24T13:22:00.608Z,53.14
2022-09-24T13:24:47.858Z,53.25
2022-09-24T13:27:38.358Z,52.82
2022-09-24T13:30:20.384Z,52.04
2022-09-24T13:33:06.384Z,51.27
2022-09-24T13:35:41.693Z,50.51
2022-09-24T13:38:22.505Z,50.86
2022-09-24T13:41:06.120Z,50.89
2022-09-24T13:44:00.941Z,50.60
2022-09-24T13:46:31.458Z,51.28
2022-09-24T13:49:05.458Z,50.39
2022-09-24T13:51:37.280Z,48.11
2022-09-24T13:54:16.306Z,48.66
2022-09-24T13:57:08.787Z,49.38
2022-09-24T13:59:37.084Z,49.33
2022-09-24T14:02:22.818Z,45.53
2022-09-24T14:04:57.678Z,47.85
2022-09-24T14:07:28.163Z,47.78
2022-09-24T14:10:09.248Z,48.31
2022-09-24T14:12:36.676Z,48.59
2022-09-24T14:15:16.331Z,47.92
2022-09-24T14:17:58.256Z,47.28
2022-09-24T14:20:31.595Z,47.95
2022-09-24T14:22:59.366Z,48.30
2022-09-24T14:25:34.124Z,47.54
2022-09-24T14:28:03.489Z,48.00
2022-09-24T14:30:33.461Z,48.38
2022-09-24T14:33:07.775Z,47.63
2022-09-24T14:35:38.116Z,47.32
2022-09-24T14:38:16.920Z,47.15
2022-09-24T14:41:02.113Z,47.66
2022-09-24T14:43:59.629Z,46.55
2022-09-24T14:46:35.434Z,46.71
2022-09-24T14:49:22.392Z,45.77
2022-09-24T14:51:57.354Z,45.77
2022-09-24T14:54:35.434Z,46.12
2022-09-24T14:57:23.484Z,46.85
2022-09-24T14:59:52.422Z,46.94
2022-09-24T15:02:31.109Z,47.65
2022-09-24T15:05:06.154Z,48.20
2022-09-24T15:07:34.225Z,48.48
2022-09-24T15:10:05.453Z,48.89
2022-09-24T15:12:39.327Z,49.29
2022-09-24T15:15:21.008Z,50.07
2022-09-24T15:17:48.740Z,50.52
2022-09-24T15:20:16.316Z,51.36
2022-09-24T15:22:46.955Z,51.37
2022-09-24T15:25:15.319Z,51.66
2022-09-24T15:27:43.150Z,52.01
2022-09-24T15:30:17.113Z,52.41
2022-09-24T15:32:44.583Z,52.03
2022-09-24T15:35:15.031Z,52.60
2022-09-24T15:37:43.937Z,53.18
2022-09-24T15:40:24.998Z,54.03
2022-09-24T15:42:52.633Z,54.56
2022-09-24T15:45:23.637Z,54.87
2022-09-24T15:47:52.493Z,55.55
2022-09-24T15:50:22.330Z,55.71
2022-09-24T15:52:54.729Z,56.24
2022-09-24T15:55:23.698Z,56.91
2022-09-24T15:57:51.244Z,57.43
2022-09-24T16:00:22.656Z,57.91
2022-09-24T16:02:56.640Z,58.31
2022-09-24T16:05:25.417Z,58.91
2022-09-24T16:07:52.961Z,59.04
2022-09-24T16:10:20.352Z,59.43
2022-09-24T16:12:48.123Z,59.83
2022-09-24T16:15:16.358Z,60.13
2022-09-24T16:17:44.370Z,60.32
2022-09-24T16:20:12.125Z,60.52
2022-09-24T16:22:39.598Z,60.91
2022-09-24T16:25:08.231Z,61.07
2022-09-24T16:27:37.066Z,61.50
2022-09-24T16:30:06.763Z,61.78
2022-09-24T16:32:34.345Z,62.03
2022-09-24T16:35:01.937Z,62.20
2022-09-24T16:37:29.415Z,62.44
2022-09-24T16:39:56.692Z,62.69
2022-09-24T16:42:25.799Z,62.88
2022-09-24T16:44:53.296Z,63.09
2022-09-24T16:47:20.993Z,63.32
2022-09-24T16:49:48.356Z,63.56
2022-09-24T16:52:16.227Z,63.70
2022-09-24T16:54:43.984Z,63.87
2022-09-24T16:57:12.700Z,63.95
2022-09-24T16:59:40.140Z,63.90
2022-09-24T17:02:10.685Z,63.97
2022-09-24T17:04:39.744Z,63.96
2022-09-24T17:07:07.560Z,64.02
2022-09-24T17:09:54.142Z,64.09
2022-09-24T17:12:21.453Z,64.20
2022-09-24T17:14:48.895Z,64.27
2022-09-24T17:17:16.336Z,64.16
2022-09-24T17:19:44.596Z,64.15
2022-09-24T17:22:12.232Z,64.14
2022-09-24T17:24:40.187Z,64.15
2022-09-24T17:27:08.139Z,64.38
2022-09-24T17:29:35.559Z,64.78
2022-09-24T17:32:03.089Z,64.92
2022-09-24T17:34:30.798Z,65.19
2022-09-24T17:36:59.410Z,65.40
2022-09-24T17:39:27.471Z,65.52
2022-09-24T17:41:55.253Z,65.67
2022-09-24T17:44:23.021Z,65.78
2022-09-24T17:46:50.798Z,65.83
2022-09-24T17:49:18.426Z,65.79
2022-09-24T17:51:47.674Z,65.73
2022-09-24T17:54:18.878Z,65.68
2022-09-24T17:56:46.773Z,65.61
2022-09-24T17:59:15.694Z,65.48
2022-09-24T18:01:44.821Z,65.48
2022-09-24T18:04:16.215Z,65.58
2022-09-24T18:06:46.054Z,65.56
2022-09-24T18:09:15.868Z,65.59
2022-09-24T18:11:47.553Z,65.56
2022-09-24T18:14:20.396Z,65.45
2022-09-24T18:16:50.047Z,65.33
2022-09-24T18:19:18.151Z,65.29
2022-09-24T18:21:48.741Z,65.25
2022-09-24T18:24:16.762Z,65.24
2022-09-24T18:26:44.483Z,65.27
2022-09-24T18:29:15.369Z,65.23
2022-09-24T18:31:43.350Z,65.16
2022-09-24T18:34:14.981Z,65.12
2022-09-24T18:36:44.292Z,65.11
2022-09-24T18:39:20.093Z,65.15
2022-09-24T18:41:45.023Z,65.12
2022-09-24T18:44:13.246Z,65.08
2022-09-24T18:46:41.540Z,65.16
2022-09-24T18:49:11.303Z,65.16
2022-09-24T18:51:39.145Z,65.27
2022-09-24T18:54:11.721Z,65.38
2022-09-24T18:56:39.622Z,65.48
2022-09-24T18:59:11.411Z,65.62
2022-09-24T19:01:39.862Z,65.67
2022-09-24T19:04:10.349Z,65.71
2022-09-24T19:06:41.738Z,65.81
2022-09-24T19:09:12.904Z,65.87
2022-09-24T19:11:41.361Z,66.05
2022-09-24T19:14:11.372Z,66.39
2022-09-24T19:16:39.806Z,66.52
2022-09-24T19:19:07.718Z,66.75
2022-09-24T19:21:35.220Z,66.92
2022-09-24T19:24:06.045Z,67.05
2022-09-24T19:26:36.144Z,67.27
2022-09-24T19:29:05.125Z,67.30
2022-09-24T19:31:37.053Z,67.37
2022-09-24T19:34:07.479Z,67.21
2022-09-24T19:36:44.657Z,66.84
2022-09-24T19:39:16.351Z,66.50
2022-09-24T19:41:44.665Z,66.48
2022-09-24T19:44:13.562Z,66.38
2022-09-24T19:46:41.633Z,66.31
2022-09-24T19:49:09.435Z,66.35
2022-09-24T19:51:37.414Z,66.45
2022-09-24T19:54:09.051Z,66.47
2022-09-24T19:56:37.610Z,66.49
2022-09-24T19:59:05.552Z,66.51
2022-09-24T20:01:34.244Z,66.62
2022-09-24T20:04:05.451Z,66.75
2022-09-24T20:06:35.637Z,66.77
2022-09-24T20:09:04.304Z,66.87
2022-09-24T20:11:32.253Z,66.91
2022-09-24T20:14:00.890Z,66.99
2022-09-24T20:16:31.285Z,67.05
2022-09-24T20:18:58.991Z,67.13
2022-09-24T20:21:31.593Z,67.13
2022-09-24T20:24:00.826Z,67.13
2022-09-24T20:26:47.183Z,67.16
2022-09-24T20:29:15.042Z,67.23
2022-09-24T20:31:46.655Z,67.25
2022-09-24T20:34:14.035Z,67.32
2022-09-24T20:36:41.747Z,67.35
2022-09-24T20:39:09.430Z,67.37
2022-09-24T20:41:37.002Z,67.38
2022-09-24T20:44:04.675Z,67.38
2022-09-24T20:46:32.317Z,67.42
2022-09-24T20:49:01.322Z,67.55
2022-09-24T20:51:32.971Z,67.69
2022-09-24T20:54:01.267Z,67.78
2022-09-24T20:56:30.074Z,67.94
2022-09-24T20:58:58.168Z,68.03
2022-09-24T21:01:25.913Z,68.13
2022-09-24T21:03:53.667Z,68.09
2022-09-24T21:06:23.144Z,67.98
2022-09-24T21:08:51.794Z,68.10
2022-09-24T21:11:24.604Z,67.99
2022-09-24T21:13:56.634Z,67.81
2022-09-24T21:16:28.422Z,67.78
2022-09-24T21:18:56.292Z,67.54
2022-09-24T21:21:34.748Z,67.30
2022-09-24T21:24:02.680Z,67.18
2022-09-24T21:26:33.681Z,67.22
2022-09-24T21:29:09.407Z,67.09
2022-09-24T21:31:39.525Z,67.04
2022-09-24T21:34:07.917Z,66.94
2022-09-24T21:36:43.964Z,66.79
2022-09-24T21:39:14.902Z,66.81
2022-09-24T21:41:43.003Z,67.04
2022-09-24T21:44:13.983Z,66.86
2022-09-24T21:46:43.321Z,66.93
2022-09-24T21:49:11.556Z,67.04
2022-09-24T21:51:40.510Z,67.04
2022-09-24T21:54:12.713Z,67.14
2022-09-24T21:56:40.226Z,67.16
2022-09-24T21:59:26.310Z,67.27
2022-09-24T22:01:55.228Z,67.39
2022-09-24T22:04:23.404Z,67.48
2022-09-24T22:06:50.953Z,67.55
2022-09-24T22:09:19.710Z,67.66
2022-09-24T22:11:47.338Z,67.77
2022-09-24T22:14:14.927Z,67.86
2022-09-24T22:16:42.673Z,67.99
2022-09-24T22:19:10.148Z,68.05
2022-09-24T22:21:37.854Z,68.10
2022-09-24T22:24:05.933Z,68.12
2022-09-24T22:26:33.436Z,68.21
2022-09-24T22:29:03.213Z,68.29
2022-09-24T22:31:31.573Z,68.45
2022-09-24T22:34:17.594Z,68.45
2022-09-24T22:36:46.681Z,68.53
2022-09-24T22:39:15.064Z,68.76
2022-09-24T22:41:43.475Z,68.83
2022-09-24T22:44:12.149Z,68.72
2022-09-24T22:46:41.265Z,68.45
2022-09-24T22:49:10.358Z,68.25
2022-09-24T22:51:38.786Z,68.02
2022-09-24T22:54:08.919Z,67.75
2022-09-24T22:56:36.885Z,67.74
2022-09-24T22:59:05.599Z,67.73
2022-09-24T23:01:40.418Z,67.71
2022-09-24T23:04:10.115Z,67.74
2022-09-24T23:06:37.538Z,67.81
2022-09-24T23:09:05.137Z,67.82
2022-09-24T23:11:34.978Z,67.83
2022-09-24T23:14:06.696Z,67.85
2022-09-24T23:16:36.639Z,67.88
2022-09-24T23:19:08.046Z,67.81
2022-09-24T23:21:35.399Z,67.83
2022-09-24T23:24:16.402Z,67.88
2022-09-24T23:26:45.325Z,67.93
2022-09-24T23:29:14.301Z,68.08
2022-09-24T23:31:41.896Z,68.12
2022-09-24T23:34:12.510Z,68.21
2022-09-24T23:36:40.183Z,68.29
2022-09-24T23:39:08.056Z,68.41
2022-09-24T23:41:35.694Z,68.49
2022-09-24T23:44:03.524Z,68.52
2022-09-24T23:46:33.161Z,68.64
2022-09-24T23:49:01.123Z,68.76
2022-09-24T23:51:28.748Z,68.81
2022-09-24T23:53:56.058Z,68.71
2022-09-24T23:56:23.614Z,68.81
2022-09-24T23:58:51.236Z,68.91
